createdAt,value
2022-08-22T00:02:26.736Z,100516.13
2022-08-22T00:02:46.653Z,100490.03
2022-08-22T00:02:53.143Z,100476.91
2022-08-22T00:02:55.811Z,100504.72
2022-08-22T00:05:05.122Z,100516.06
2022-08-22T00:07:46.398Z,100509.25
2022-08-22T00:10:25.616Z,100518.13
2022-08-22T00:13:04.758Z,100513.09
2022-08-22T00:15:43.533Z,100527.88
2022-08-22T00:18:17.081Z,100520.06
2022-08-22T00:20:51.007Z,100523.59
2022-08-22T00:23:29.121Z,100513.88
2022-08-22T00:26:05.411Z,100522.50
2022-08-22T00:28:41.811Z,100519.13
2022-08-22T00:31:21.307Z,100528.19
2022-08-22T00:33:55.232Z,100523.03
2022-08-22T00:36:34.008Z,100526.28
2022-08-22T00:39:13.435Z,100520.03
2022-08-22T00:42:31.386Z,100525.50
2022-08-22T00:45:43.328Z,100525.50
2022-08-22T00:48:37.626Z,100517.16
2022-08-22T00:51:33.513Z,100502.53
2022-08-22T00:54:17.639Z,100505.28
2022-08-22T00:57:21.013Z,100500.94
2022-08-22T01:00:07.129Z,100506.00
2022-08-22T01:02:54.149Z,100506.88
2022-08-22T01:05:52.139Z,100504.22
2022-08-22T01:08:45.461Z,100526.50
2022-08-22T01:11:34.489Z,100523.88
2022-08-22T01:14:34.100Z,100527.41
2022-08-22T01:17:28.954Z,100558.81
2022-08-22T01:20:33.125Z,100567.34
2022-08-22T01:23:55.963Z,100573.31
2022-08-22T01:27:07.150Z,100561.09
2022-08-22T01:30:16.480Z,100534.72
2022-08-22T01:33:22.687Z,100535.16
2022-08-22T01:36:17.092Z,100536.38
2022-08-22T01:39:16.881Z,100536.53
2022-08-22T01:42:13.321Z,100551.59
2022-08-22T01:45:29.033Z,100540.38
2022-08-22T01:48:06.864Z,100544.78
2022-08-22T01:50:41.503Z,100538.09
2022-08-22T01:53:23.838Z,100543.50
2022-08-22T01:56:05.273Z,100544.56
2022-08-22T01:58:37.731Z,100538.72
2022-08-22T02:01:26.473Z,100540.31
2022-08-22T02:04:05.565Z,100555.38
2022-08-22T02:06:44.104Z,100543.16
2022-08-22T02:09:30.997Z,100539.81
2022-08-22T02:12:21.881Z,100543.47
2022-08-22T02:14:59.589Z,100544.16
2022-08-22T02:17:31.975Z,100550.56
2022-08-22T02:20:11.355Z,100546.94
2022-08-22T02:22:55.189Z,100509.66
2022-08-22T02:25:32.294Z,100523.25
2022-08-22T02:28:11.369Z,100534.00
2022-08-22T02:30:49.697Z,100539.28
2022-08-22T02:33:32.227Z,100532.22
2022-08-22T02:36:11.440Z,100536.50
2022-08-22T02:38:51.040Z,100536.50
2022-08-22T02:41:30.918Z,100528.75
2022-08-22T02:44:06.854Z,100539.09
2022-08-22T02:46:49.110Z,100538.97
2022-08-22T02:49:27.436Z,100544.06
2022-08-22T02:52:10.117Z,100534.19
2022-08-22T02:54:44.989Z,100529.84
2022-08-22T02:57:20.947Z,100543.72
2022-08-22T03:00:31.512Z,100532.16
2022-08-22T03:03:06.990Z,100541.03
2022-08-22T03:05:50.834Z,100530.75
2022-08-22T03:08:26.461Z,100546.41
2022-08-22T03:11:06.613Z,100549.91
2022-08-22T03:13:54.716Z,100543.50
2022-08-22T03:16:33.591Z,100547.97
2022-08-22T03:19:13.209Z,100548.09
2022-08-22T03:21:57.532Z,100545.50
2022-08-22T03:24:35.171Z,100550.13
2022-08-22T03:27:13.334Z,100546.41
2022-08-22T03:30:03.907Z,100554.72
2022-08-22T03:32:49.920Z,100551.19
2022-08-22T03:35:27.907Z,100554.63
2022-08-22T03:38:14.206Z,100549.38
2022-08-22T03:41:11.622Z,100561.53
2022-08-22T03:44:08.467Z,100563.25
2022-08-22T03:47:08.592Z,100547.47
2022-08-22T03:50:29.198Z,100544.56
2022-08-22T03:53:22.742Z,100547.28
2022-08-22T03:56:33.465Z,100547.25
2022-08-22T03:59:27.151Z,100547.00
2022-08-22T04:02:43.131Z,100556.50
2022-08-22T04:05:58.806Z,100545.84
2022-08-22T04:09:14.562Z,100552.19
2022-08-22T04:12:18.669Z,100552.47
2022-08-22T04:15:21.968Z,100550.69
2022-08-22T04:18:25.997Z,100559.84
2022-08-22T04:21:16.050Z,100536.28
2022-08-22T04:24:14.873Z,100557.19
2022-08-22T04:26:49.914Z,100549.38
2022-08-22T04:29:24.975Z,100561.16
2022-08-22T04:32:02.663Z,100556.38
2022-08-22T04:34:39.646Z,100557.69
2022-08-22T04:37:16.958Z,100561.66
2022-08-22T04:39:53.312Z,100544.69
2022-08-22T04:42:32.798Z,100547.66
2022-08-22T04:45:08.476Z,100554.13
2022-08-22T04:47:41.650Z,100545.53
2022-08-22T04:50:20.787Z,100548.28
2022-08-22T04:53:13.526Z,100556.97
2022-08-22T04:55:53.049Z,100543.84
2022-08-22T04:58:33.697Z,100563.72
2022-08-22T05:01:15.045Z,100557.75
2022-08-22T05:03:52.734Z,100559.19
2022-08-22T05:06:28.189Z,100556.66
2022-08-22T05:09:01.565Z,100558.88
2022-08-22T05:11:32.447Z,100551.28
2022-08-22T05:14:06.648Z,100553.28
2022-08-22T05:16:39.333Z,100549.84
2022-08-22T05:19:16.909Z,100542.47
2022-08-22T05:21:51.334Z,100550.25
2022-08-22T05:24:28.031Z,100528.03
2022-08-22T05:27:01.634Z,100543.34
2022-08-22T05:29:34.701Z,100542.00
2022-08-22T05:32:09.717Z,100534.19
2022-08-22T05:34:41.876Z,100526.63
2022-08-22T05:37:15.990Z,100527.66
2022-08-22T05:39:49.280Z,100528.34
2022-08-22T05:42:25.152Z,100536.34
2022-08-22T05:44:56.026Z,100534.59
2022-08-22T05:47:29.465Z,100528.38
2022-08-22T05:50:05.039Z,100528.25
2022-08-22T05:53:03.066Z,100539.97
2022-08-22T05:55:40.135Z,100544.69
2022-08-22T05:58:39.198Z,100533.16
2022-08-22T06:01:21.350Z,100542.72
2022-08-22T06:04:00.900Z,100525.50
2022-08-22T06:06:34.514Z,100541.91
2022-08-22T06:09:13.916Z,100543.22
2022-08-22T06:11:51.668Z,100533.25
2022-08-22T06:14:33.357Z,100543.09
2022-08-22T06:17:09.826Z,100543.91
2022-08-22T06:19:43.143Z,100537.91
2022-08-22T06:22:18.710Z,100539.00
2022-08-22T06:24:52.592Z,100549.03
2022-08-22T06:27:25.677Z,100529.94
2022-08-22T06:29:59.347Z,100549.53
2022-08-22T06:32:44.557Z,100547.47
2022-08-22T06:35:25.906Z,100550.53
2022-08-22T06:38:01.027Z,100556.13
2022-08-22T06:40:32.518Z,100551.03
2022-08-22T06:43:01.446Z,100554.03
2022-08-22T06:45:33.960Z,100545.56
2022-08-22T06:48:17.369Z,100555.41
2022-08-22T06:50:50.720Z,100542.16
2022-08-22T06:53:23.758Z,100549.81
2022-08-22T06:55:58.306Z,100539.84
2022-08-22T06:58:34.270Z,100534.56
2022-08-22T07:01:11.390Z,100540.03
2022-08-22T07:03:46.731Z,100549.41
2022-08-22T07:06:17.536Z,100555.25
2022-08-22T07:08:47.417Z,100548.63
2022-08-22T07:11:25.898Z,100553.06
2022-08-22T07:13:58.877Z,100559.50
2022-08-22T07:16:33.348Z,100543.44
2022-08-22T07:19:03.370Z,100548.53
2022-08-22T07:21:43.749Z,100546.03
2022-08-22T07:24:19.489Z,100550.47
2022-08-22T07:27:05.507Z,100558.03
2022-08-22T07:29:45.575Z,100563.09
2022-08-22T07:32:21.086Z,100563.72
2022-08-22T07:35:04.856Z,100565.38
2022-08-22T07:37:52.692Z,100561.53
2022-08-22T07:40:30.107Z,100562.28
2022-08-22T07:43:09.861Z,100558.72
2022-08-22T07:45:45.370Z,100558.31
2022-08-22T07:48:25.811Z,100559.22
2022-08-22T07:51:11.499Z,100557.81
2022-08-22T07:53:45.125Z,100561.53
2022-08-22T07:56:18.721Z,100554.75
2022-08-22T07:58:55.010Z,100550.84
2022-08-22T08:01:25.577Z,100554.25
2022-08-22T08:03:59.558Z,100550.63
2022-08-22T08:06:31.585Z,100548.06
2022-08-22T08:09:01.428Z,100549.13
2022-08-22T08:11:38.559Z,100548.91
2022-08-22T08:14:13.722Z,100538.81
2022-08-22T08:16:46.342Z,100552.44
2022-08-22T08:19:19.293Z,100550.31
2022-08-22T08:21:53.154Z,100543.38
2022-08-22T08:24:27.325Z,100546.84
2022-08-22T08:27:16.075Z,100539.81
2022-08-22T08:29:54.925Z,100543.81
2022-08-22T08:32:26.477Z,100550.88
2022-08-22T08:34:56.797Z,100542.97
2022-08-22T08:37:31.614Z,100548.41
2022-08-22T08:40:04.482Z,100553.53
2022-08-22T08:43:14.323Z,100542.03
2022-08-22T08:46:08.302Z,100540.66
2022-08-22T08:49:06.932Z,100540.16
2022-08-22T08:51:52.808Z,100535.91
2022-08-22T08:54:44.738Z,100534.44
2022-08-22T08:57:22.584Z,100541.47
2022-08-22T09:00:04.891Z,100533.03
2022-08-22T09:02:51.989Z,100549.78
2022-08-22T09:05:56.188Z,100536.94
2022-08-22T09:09:01.104Z,100545.88
2022-08-22T09:12:01.189Z,100551.09
2022-08-22T09:14:50.481Z,100547.91
2022-08-22T09:17:41.049Z,100548.19
2022-08-22T09:20:36.315Z,100551.72
2022-08-22T09:23:37.372Z,100551.50
2022-08-22T09:26:17.591Z,100541.94
2022-08-22T09:28:55.666Z,100557.72
2022-08-22T09:31:48.155Z,100554.13
2022-08-22T09:34:28.451Z,100539.81
2022-08-22T09:37:14.394Z,100554.47
2022-08-22T09:39:52.886Z,100549.84
2022-08-22T09:42:32.776Z,100555.09
2022-08-22T09:45:42.899Z,100545.59
2022-08-22T09:48:37.032Z,100544.22
2022-08-22T09:51:32.246Z,100548.31
2022-08-22T09:54:22.525Z,100546.25
2022-08-22T09:57:09.675Z,100548.78
2022-08-22T09:59:47.766Z,100541.44
2022-08-22T10:02:31.229Z,100535.06
2022-08-22T10:05:07.258Z,100542.19
2022-08-22T10:07:58.226Z,100541.44
2022-08-22T10:10:45.937Z,100532.81
2022-08-22T10:13:28.693Z,100533.88
2022-08-22T10:16:06.245Z,100526.16
2022-08-22T10:18:52.741Z,100531.06
2022-08-22T10:21:35.857Z,100536.16
2022-08-22T10:24:24.606Z,100539.84
2022-08-22T10:27:04.382Z,100532.44
2022-08-22T10:29:53.449Z,100529.53
2022-08-22T10:32:33.000Z,100535.50
2022-08-22T10:35:16.617Z,100538.63
2022-08-22T10:37:55.786Z,100531.69
2022-08-22T10:40:31.102Z,100523.47
2022-08-22T10:43:10.417Z,100537.44
2022-08-22T10:45:45.570Z,100523.44
2022-08-22T10:48:32.270Z,100531.00
2022-08-22T10:51:22.306Z,100531.16
2022-08-22T10:54:04.961Z,100525.66
2022-08-22T10:56:40.726Z,100523.50
2022-08-22T10:59:33.526Z,100518.66
2022-08-22T11:02:18.712Z,100538.66
2022-08-22T11:05:21.232Z,100531.47
2022-08-22T11:08:03.932Z,100519.84
2022-08-22T11:10:49.206Z,100535.84
2022-08-22T11:13:30.715Z,100528.19
2022-08-22T11:16:15.228Z,100523.25
2022-08-22T11:19:15.397Z,100527.38
2022-08-22T11:21:56.490Z,100527.75
2022-08-22T11:25:05.073Z,100516.59
2022-08-22T11:27:44.292Z,100518.28
2022-08-22T11:30:18.724Z,100523.38
2022-08-22T11:33:46.359Z,100526.91
2022-08-22T11:36:39.586Z,100523.00
2022-08-22T11:39:24.531Z,100521.91
2022-08-22T11:42:06.274Z,100518.66
2022-08-22T11:44:50.461Z,100511.50
2022-08-22T11:47:26.764Z,100509.44
2022-08-22T11:50:10.759Z,100510.06
2022-08-22T11:53:09.864Z,100510.16
2022-08-22T11:55:42.812Z,100510.63
2022-08-22T11:58:29.226Z,100512.03
2022-08-22T12:01:04.707Z,100510.44
2022-08-22T12:03:58.699Z,100504.91
2022-08-22T12:06:44.896Z,100502.22
2022-08-22T12:09:35.665Z,100504.00
2022-08-22T12:12:20.850Z,100511.66
2022-08-22T12:15:00.004Z,100502.88
2022-08-22T12:18:04.870Z,100506.84
2022-08-22T12:20:52.449Z,100503.97
2022-08-22T12:23:52.650Z,100497.25
2022-08-22T12:26:31.469Z,100492.53
2022-08-22T12:29:33.573Z,100505.09
2022-08-22T12:32:45.804Z,100499.16
2022-08-22T12:35:32.653Z,100509.97
2022-08-22T12:38:28.844Z,100509.81
2022-08-22T12:41:35.032Z,100502.88
2022-08-22T12:44:22.491Z,100495.84
2022-08-22T12:47:06.772Z,100496.88
2022-08-22T12:57:36.500Z,100504.53
2022-08-22T13:00:26.714Z,100509.63
2022-08-22T13:02:56.993Z,100509.97
2022-08-22T13:05:29.532Z,100512.38
2022-08-22T13:08:04.622Z,100499.91
2022-08-22T13:10:47.803Z,100502.84
2022-08-22T13:13:36.962Z,100500.16
2022-08-22T13:16:11.677Z,100496.47
2022-08-22T13:18:55.030Z,100501.50
2022-08-22T13:21:34.602Z,100500.84
2022-08-22T13:24:10.481Z,100504.13
2022-08-22T13:26:50.053Z,100501.56
2022-08-22T13:29:27.339Z,100504.69
2022-08-22T13:32:11.325Z,100505.41
2022-08-22T13:34:45.962Z,100492.19
2022-08-22T13:37:24.397Z,100511.94
2022-08-22T13:39:59.763Z,100508.66
2022-08-22T13:42:32.512Z,100502.69
2022-08-22T13:45:11.960Z,100510.13
2022-08-22T13:47:51.389Z,100507.09
2022-08-22T13:50:24.249Z,100501.19
2022-08-22T13:53:00.255Z,100482.16
2022-08-22T13:55:38.063Z,100499.84
2022-08-22T13:58:24.945Z,100494.84
2022-08-22T14:01:25.426Z,100502.16
2022-08-22T14:04:01.118Z,100491.88
2022-08-22T14:06:43.744Z,100492.41
2022-08-22T14:09:32.146Z,100490.59
2022-08-22T14:12:12.151Z,100493.19
2022-08-22T14:14:45.878Z,100458.84
2022-08-22T14:17:21.498Z,100488.75
2022-08-22T14:20:01.501Z,100492.97
2022-08-22T14:22:35.987Z,100487.81
2022-08-22T14:25:10.234Z,100498.38
2022-08-22T14:27:58.639Z,100499.50
2022-08-22T14:30:30.808Z,100496.59
2022-08-22T14:33:22.781Z,100483.00
2022-08-22T14:35:57.586Z,100501.53
2022-08-22T14:38:35.825Z,100496.00
2022-08-22T14:41:08.065Z,100490.78
2022-08-22T14:43:52.243Z,100498.06
2022-08-22T14:46:26.929Z,100494.41
2022-08-22T14:49:38.287Z,100494.63
2022-08-22T14:52:19.527Z,100497.41
2022-08-22T14:54:51.020Z,100491.63
2022-08-22T14:57:20.912Z,100485.69
2022-08-22T14:59:53.428Z,100494.28
2022-08-22T15:02:28.298Z,100498.78
2022-08-22T15:05:01.208Z,100498.56
2022-08-22T15:07:37.551Z,100495.94
2022-08-22T15:10:20.773Z,100501.25
2022-08-22T15:12:55.581Z,100495.41
2022-08-22T15:15:49.723Z,100501.94
2022-08-22T15:18:36.209Z,100499.75
2022-08-22T15:21:10.066Z,100500.81
2022-08-22T15:23:46.723Z,100502.38
2022-08-22T15:26:25.053Z,100510.84
2022-08-22T15:29:06.501Z,100505.88
2022-08-22T15:31:43.460Z,100506.03
2022-08-22T15:34:25.149Z,100503.72
2022-08-22T15:37:08.340Z,100510.94
2022-08-22T15:40:02.658Z,100513.59
2022-08-22T15:42:36.462Z,100517.91
2022-08-22T15:45:07.701Z,100503.72
2022-08-22T15:47:39.218Z,100516.69
2022-08-22T15:50:15.334Z,100515.19
2022-08-22T15:53:21.152Z,100513.69
2022-08-22T15:56:24.498Z,100516.81
2022-08-22T15:59:11.137Z,100521.19
2022-08-22T16:01:49.803Z,100524.19
2022-08-22T16:04:35.473Z,100519.28
2022-08-22T16:07:21.079Z,100516.81
2022-08-22T16:09:53.521Z,100527.25
2022-08-22T16:12:35.432Z,100525.03
2022-08-22T16:15:09.243Z,100529.41
2022-08-22T16:17:53.567Z,100524.69
2022-08-22T16:20:55.606Z,100527.78
2022-08-22T16:23:24.907Z,100523.44
2022-08-22T16:26:15.141Z,100535.31
2022-08-22T16:28:59.166Z,100527.03
2022-08-22T16:31:32.582Z,100538.38
2022-08-22T16:34:32.570Z,100542.09
2022-08-22T16:37:47.631Z,100540.81
2022-08-22T16:40:28.258Z,100546.53
2022-08-22T16:43:28.995Z,100549.38
2022-08-22T16:46:23.378Z,100541.25
2022-08-22T16:49:03.220Z,100544.13
2022-08-22T16:51:32.752Z,100541.97
2022-08-22T16:54:11.889Z,100546.72
2022-08-22T16:57:05.182Z,100550.09
2022-08-22T16:59:54.373Z,100549.53
2022-08-22T17:02:43.583Z,100554.19
2022-08-22T17:05:46.682Z,100554.66
2022-08-22T17:08:34.227Z,100545.91
2022-08-22T17:11:53.607Z,100528.00
2022-08-22T17:14:43.704Z,100565.09
2022-08-22T17:17:26.788Z,100578.47
2022-08-22T17:20:15.132Z,100565.72
2022-08-22T17:22:57.911Z,100570.72
2022-08-22T17:25:36.024Z,100566.44
2022-08-22T17:28:17.213Z,100571.66
2022-08-22T17:31:07.159Z,100571.56
2022-08-22T17:34:13.899Z,100575.16
2022-08-22T17:36:53.228Z,100577.63
2022-08-22T17:39:51.746Z,100564.72
2022-08-22T17:42:44.366Z,100535.88
2022-08-22T17:45:27.710Z,100572.63
2022-08-22T17:48:07.599Z,100563.91
2022-08-22T17:50:42.185Z,100574.59
2022-08-22T17:53:18.345Z,100579.13
2022-08-22T17:56:02.600Z,100575.53
2022-08-22T17:58:43.591Z,100545.25
2022-08-22T18:01:15.380Z,100567.47
2022-08-22T18:03:52.532Z,100564.94
2022-08-22T18:06:26.677Z,100561.13
2022-08-22T18:09:17.056Z,100566.41
2022-08-22T18:11:56.866Z,100575.38
2022-08-22T18:14:34.900Z,100576.69
2022-08-22T18:17:19.186Z,100579.13
2022-08-22T18:20:07.754Z,100578.06
2022-08-22T18:22:45.987Z,100563.59
2022-08-22T18:25:34.771Z,100571.16
2022-08-22T18:28:11.984Z,100576.16
2022-08-22T18:30:55.091Z,100571.81
2022-08-22T18:33:32.903Z,100570.78
2022-08-22T18:36:15.826Z,100564.81
2022-08-22T18:38:55.143Z,100567.63
2022-08-22T18:41:37.937Z,100573.94
2022-08-22T18:44:17.015Z,100571.91
2022-08-22T18:46:51.658Z,100574.44
2022-08-22T18:49:53.679Z,100572.41
2022-08-22T18:52:41.441Z,100572.75
2022-08-22T18:55:31.636Z,100575.38
2022-08-22T18:58:32.603Z,100572.25
2022-08-22T19:01:42.125Z,100588.19
2022-08-22T19:04:43.118Z,100580.28
2022-08-22T19:07:28.020Z,100584.09
2022-08-22T19:10:23.094Z,100577.88
2022-08-22T19:13:14.322Z,100577.53
2022-08-22T19:16:04.150Z,100583.34
2022-08-22T19:18:46.453Z,100585.38
2022-08-22T19:21:47.268Z,100589.28
2022-08-22T19:24:37.392Z,100589.81
2022-08-22T19:27:31.520Z,100588.50
2022-08-22T19:30:04.411Z,100584.84
2022-08-22T19:33:04.111Z,100591.81
2022-08-22T19:35:47.378Z,100591.53
2022-08-22T19:38:53.088Z,100599.59
2022-08-22T19:42:00.753Z,100582.41
2022-08-22T19:44:37.239Z,100602.09
2022-08-22T19:47:17.666Z,100591.81
2022-08-22T19:50:05.683Z,100599.34
2022-08-22T19:53:10.385Z,100588.78
2022-08-22T19:55:54.813Z,100598.31
2022-08-22T19:58:40.381Z,100596.47
2022-08-22T20:01:43.176Z,100585.72
2022-08-22T20:04:37.743Z,100593.75
2022-08-22T20:07:19.465Z,100600.03
2022-08-22T20:09:59.037Z,100600.38
2022-08-22T20:12:50.718Z,100610.22
2022-08-22T20:15:22.034Z,100599.28
2022-08-22T20:21:02.057Z,100601.31
2022-08-22T20:23:34.598Z,100597.88
2022-08-22T20:26:04.686Z,100605.00
2022-08-22T20:28:52.012Z,100610.59
2022-08-22T20:31:24.123Z,100615.44
2022-08-22T20:33:59.321Z,100608.56
2022-08-22T20:39:11.354Z,100627.19
2022-08-22T20:41:45.189Z,100625.94
2022-08-22T20:46:57.450Z,100629.44
2022-08-22T20:49:31.419Z,100629.25
2022-08-22T20:52:05.960Z,100621.81
2022-08-22T20:54:39.400Z,100637.41
2022-08-22T20:57:16.697Z,100635.84
2022-08-22T20:59:54.877Z,100637.13
2022-08-22T21:02:28.711Z,100633.50
2022-08-22T21:05:03.277Z,100636.41
2022-08-22T21:07:35.607Z,100635.09
2022-08-22T21:10:28.342Z,100642.63
2022-08-22T21:13:08.622Z,100641.94
2022-08-22T21:15:40.469Z,100637.81
2022-08-22T21:18:11.816Z,100657.66
2022-08-22T21:20:41.669Z,100649.75
2022-08-22T21:23:15.589Z,100647.72
2022-08-22T21:25:59.146Z,100637.81
2022-08-22T21:28:31.318Z,100648.59
2022-08-22T21:33:44.536Z,100650.94
2022-08-22T21:36:22.347Z,100649.22
2022-08-22T21:38:54.829Z,100658.03
2022-08-22T21:41:33.539Z,100640.13
2022-08-22T21:44:40.018Z,100652.44
2022-08-22T21:47:30.736Z,100653.28
2022-08-22T21:50:12.531Z,100655.00
2022-08-22T21:52:44.939Z,100655.09
2022-08-22T21:55:25.989Z,100664.91
2022-08-22T21:58:22.019Z,100661.88
2022-08-22T22:01:30.167Z,100653.25
2022-08-22T22:04:00.692Z,100674.69
2022-08-22T22:06:29.914Z,100656.78
2022-08-22T22:08:59.150Z,100674.03
2022-08-22T22:11:28.407Z,100651.97
2022-08-22T22:14:04.671Z,100670.03
2022-08-22T22:16:34.096Z,100675.47
2022-08-22T22:19:03.376Z,100675.59
2022-08-22T22:21:40.277Z,100686.16
2022-08-22T22:24:14.734Z,100681.00
2022-08-22T22:26:44.176Z,100664.88
2022-08-22T22:29:15.705Z,100677.91
2022-08-22T22:31:45.334Z,100676.69
2022-08-22T22:34:19.705Z,100689.06
2022-08-22T22:36:49.299Z,100690.34
2022-08-22T22:39:18.478Z,100686.97
2022-08-22T22:41:48.557Z,100685.84
2022-08-22T22:44:25.328Z,100699.28
2022-08-22T22:46:58.570Z,100680.66
2022-08-22T22:49:36.535Z,100687.72
2022-08-22T22:52:07.111Z,100678.94
2022-08-22T22:54:46.743Z,100678.94
2022-08-22T22:57:25.583Z,100685.50
2022-08-22T23:00:02.185Z,100692.97
2022-08-22T23:02:33.424Z,100695.00
2022-08-22T23:05:02.594Z,100689.88
2022-08-22T23:07:33.803Z,100686.31
2022-08-22T23:10:12.330Z,100695.38
2022-08-22T23:12:41.988Z,100698.09
2022-08-22T23:15:14.345Z,100682.66
2022-08-22T23:17:43.628Z,100694.13
2022-08-22T23:20:13.127Z,100688.28
2022-08-22T23:22:51.188Z,100709.13
2022-08-22T23:25:20.637Z,100698.47
2022-08-22T23:27:57.547Z,100699.03
2022-08-22T23:30:28.629Z,100694.03
2022-08-22T23:33:03.066Z,100690.47
2022-08-22T23:35:32.353Z,100691.50
2022-08-22T23:38:01.858Z,100704.88
2022-08-22T23:40:31.297Z,100696.22
2022-08-22T23:43:01.008Z,100695.47
2022-08-22T23:45:32.465Z,100704.28
2022-08-22T23:48:01.775Z,100701.72
2022-08-22T23:50:31.111Z,100696.66
2022-08-22T23:53:00.458Z,100705.25
2022-08-22T23:55:29.789Z,100708.06
2022-08-22T23:57:59.071Z,100707.31
